Anton, Colorado
Current Conditions -  °F | °C
As of 1:53 AM on Sunday 21 Dec 2014 (Local Time) from KAKO Reporting Station
Clear Clear  
Wind Chill: 14°   Ceiling: Unl
Heat Index: 26°   Visibility: 10mi
Dew Point: 21°   Wind: 15mph
Humidity: 81%   Direction: 260°W
Pressure: 29.84"   Gusts: NA
Location:  39.74°N, 103.22°W
Report Text: KAKO 210853Z AUTO 26013KT 10SM CLR M03/M06 A2984 RMK AO2 SLP120 T10331061 56015
Loading
Personal Weather Stations






























Interactive Weather Map New forecast layout! Learn more

10-Day Weather Forecast

Advertisements
Track Severe Weather on mobile